createdAt,value
2022-12-14T00:01:22.817Z,33.28
2022-12-14T00:03:27.682Z,33.32
2022-12-14T00:05:32.108Z,33.29
2022-12-14T00:07:36.428Z,33.28
2022-12-14T00:09:40.690Z,33.07
2022-12-14T00:11:44.973Z,33.32
2022-12-14T00:13:50.852Z,33.38
2022-12-14T00:15:55.317Z,33.61
2022-12-14T00:17:59.623Z,33.5
2022-12-14T00:20:03.945Z,33.61
2022-12-14T00:22:08.251Z,33.74
2022-12-14T00:24:12.573Z,33.77
2022-12-14T00:26:16.869Z,34.08
2022-12-14T00:28:21.167Z,33.97
2022-12-14T00:30:25.437Z,34.17
2022-12-14T00:32:29.766Z,34.04
2022-12-14T00:34:34.072Z,34.07
2022-12-14T00:36:38.385Z,34.02
2022-12-14T00:38:42.678Z,33.64
2022-12-14T00:40:46.937Z,33.67
2022-12-14T00:42:51.288Z,33.55
2022-12-14T00:44:55.600Z,33.74
2022-12-14T00:46:59.919Z,33.83
2022-12-14T00:49:04.208Z,33.72
2022-12-14T00:51:08.515Z,33.91
2022-12-14T00:53:12.791Z,34.03
2022-12-14T00:55:17.261Z,33.84
2022-12-14T00:57:21.554Z,33.9
2022-12-14T00:59:29.299Z,33.67
2022-12-14T01:01:34.304Z,33.37
2022-12-14T01:03:38.921Z,33.74
2022-12-14T01:05:50.179Z,33.79
2022-12-14T01:07:54.477Z,33.81
2022-12-14T01:09:58.776Z,33.67
2022-12-14T01:12:03.057Z,33.79
2022-12-14T01:14:07.371Z,33.62
2022-12-14T01:16:12.002Z,33.6
2022-12-14T01:18:16.363Z,33.53
2022-12-14T01:20:20.646Z,33.32
2022-12-14T01:22:24.926Z,33.58
2022-12-14T01:24:29.217Z,33.55
2022-12-14T01:26:33.545Z,33.28
2022-12-14T01:28:37.820Z,33.46
2022-12-14T01:30:42.096Z,33.63
2022-12-14T01:32:46.398Z,33.52
2022-12-14T01:34:50.693Z,33.59
2022-12-14T01:36:54.972Z,33.44
2022-12-14T01:38:59.297Z,33.47
2022-12-14T01:41:03.597Z,33.62
2022-12-14T01:43:07.884Z,32.97
2022-12-14T01:45:12.189Z,33.67
2022-12-14T01:47:16.469Z,33.54
2022-12-14T01:49:20.739Z,33.35
2022-12-14T01:51:25.030Z,33.53
2022-12-14T01:53:30.503Z,33.22
2022-12-14T01:55:34.881Z,33.45
2022-12-14T01:57:39.146Z,33.26
2022-12-14T01:59:43.480Z,33.12
2022-12-14T02:01:50.616Z,33.7
2022-12-14T02:03:54.993Z,33.56
2022-12-14T02:05:59.319Z,33.5
2022-12-14T02:08:03.580Z,33.46
2022-12-14T02:10:07.866Z,33.4
2022-12-14T02:12:12.160Z,33.42
2022-12-14T02:14:16.578Z,33.45
2022-12-14T02:16:21.235Z,33.26
2022-12-14T02:18:25.576Z,33.29
2022-12-14T02:20:29.860Z,33.29
2022-12-14T02:22:34.157Z,33.1
2022-12-14T02:24:38.464Z,33.29
2022-12-14T02:26:42.729Z,33.12
2022-12-14T02:28:47.038Z,33.34
2022-12-14T02:30:51.311Z,33.5
2022-12-14T02:32:55.626Z,33.32
2022-12-14T02:34:59.891Z,33.36
2022-12-14T02:37:04.252Z,33.31
2022-12-14T02:39:08.564Z,33.43
2022-12-14T02:41:12.836Z,33.45
2022-12-14T02:44:49.860Z,33.63
2022-12-14T02:46:54.309Z,33.58
2022-12-14T02:48:58.632Z,33.63
2022-12-14T02:51:02.936Z,33.72
2022-12-14T02:53:07.302Z,33.65
2022-12-14T02:55:11.586Z,33.71
2022-12-14T02:57:15.875Z,33.63
2022-12-14T02:59:20.184Z,33.71
2022-12-14T03:01:25.154Z,33.53
2022-12-14T03:03:31.208Z,33.91
2022-12-14T03:05:36.038Z,33.93
2022-12-14T03:07:40.457Z,33.91
2022-12-14T03:09:44.753Z,33.69
2022-12-14T03:11:49.044Z,33.84
2022-12-14T03:13:53.330Z,33.9
2022-12-14T03:15:57.893Z,33.94
2022-12-14T03:18:02.222Z,33.86
2022-12-14T03:20:06.511Z,33.91
2022-12-14T03:22:10.790Z,33.94
2022-12-14T03:24:15.419Z,34.05
2022-12-14T03:26:19.695Z,34.01
2022-12-14T03:28:24.011Z,34.06
2022-12-14T03:31:01.934Z,33.97
2022-12-14T03:33:06.211Z,34.04
2022-12-14T03:35:11.904Z,33.9
2022-12-14T03:37:16.191Z,33.89
2022-12-14T03:39:20.474Z,33.97
2022-12-14T03:41:24.787Z,34.03
2022-12-14T03:43:30.669Z,33.97
2022-12-14T03:45:35.357Z,33.94
2022-12-14T03:47:39.667Z,33.94
2022-12-14T03:49:44.006Z,33.99
2022-12-14T03:51:48.313Z,33.91
2022-12-14T03:53:52.578Z,33.89
2022-12-14T03:55:56.879Z,33.92
2022-12-14T03:58:01.137Z,33.85
2022-12-14T04:00:05.478Z,33.8
2022-12-14T04:02:10.334Z,33.87
2022-12-14T04:04:14.648Z,34.03
2022-12-14T04:06:18.948Z,34.02
2022-12-14T04:08:23.227Z,33.86
2022-12-14T04:10:27.543Z,33.76
2022-12-14T04:12:31.858Z,33.76
2022-12-14T04:14:36.169Z,33.57
2022-12-14T04:16:40.614Z,33.71
2022-12-14T04:18:45.004Z,33.76
2022-12-14T04:20:49.312Z,33.7
2022-12-14T04:22:53.630Z,33.66
2022-12-14T04:24:57.932Z,33.8
2022-12-14T04:27:02.336Z,33.66
2022-12-14T04:29:06.607Z,33.72
2022-12-14T04:31:10.913Z,33.78
2022-12-14T04:33:15.212Z,33.75
2022-12-14T04:35:19.533Z,33.71
2022-12-14T04:37:23.837Z,33.71
2022-12-14T04:39:28.112Z,33.69
2022-12-14T04:41:32.417Z,33.76
2022-12-14T04:43:36.730Z,33.65
2022-12-14T04:45:41.174Z,33.67
2022-12-14T04:47:45.642Z,33.58
2022-12-14T04:49:51.242Z,33.65
2022-12-14T04:51:58.213Z,33.48
2022-12-14T04:54:04.843Z,33.61
2022-12-14T04:56:09.132Z,33.71
2022-12-14T04:58:13.444Z,33.65
2022-12-14T05:00:17.717Z,33.67
2022-12-14T05:02:22.697Z,33.65
2022-12-14T05:04:27.149Z,33.7
2022-12-14T05:06:31.460Z,33.65
2022-12-14T05:08:35.742Z,33.73
2022-12-14T05:10:40.056Z,33.72
2022-12-14T05:12:44.353Z,33.66
2022-12-14T05:14:48.676Z,33.78
2022-12-14T05:16:54.533Z,33.58
2022-12-14T05:18:58.835Z,33.54
2022-12-14T05:21:03.127Z,33.62
2022-12-14T05:23:07.407Z,33.55
2022-12-14T05:25:11.720Z,33.52
2022-12-14T05:27:16.020Z,33.51
2022-12-14T05:29:20.320Z,33.45
2022-12-14T05:31:24.639Z,33.45
2022-12-14T05:33:30.571Z,33.46
2022-12-14T05:35:34.869Z,33.37
2022-12-14T05:37:39.174Z,33.32
2022-12-14T05:39:43.488Z,33.4
2022-12-14T05:41:47.791Z,33.44
2022-12-14T05:43:52.093Z,33.4
2022-12-14T05:45:56.538Z,33.36
2022-12-14T05:48:00.873Z,33.4
2022-12-14T05:50:05.177Z,33.24
2022-12-14T05:52:09.505Z,33.55
2022-12-14T05:54:13.977Z,33.63
2022-12-14T05:56:18.315Z,33.65
2022-12-14T05:58:22.581Z,33.54
2022-12-14T06:00:26.864Z,33.67
2022-12-14T06:02:31.760Z,33.57
2022-12-14T06:04:36.361Z,33.95
2022-12-14T06:06:40.709Z,33.78
2022-12-14T06:08:44.997Z,33.72
2022-12-14T06:10:49.300Z,33.59
2022-12-14T06:12:54.121Z,33.79
2022-12-14T06:14:58.407Z,33.31
2022-12-14T06:17:02.716Z,33
2022-12-14T06:19:06.997Z,32.49
2022-12-14T06:21:11.327Z,32.79
2022-12-14T06:23:15.623Z,32.49
2022-12-14T06:25:19.882Z,31.93
2022-12-14T06:27:24.169Z,31.81
2022-12-14T06:29:28.469Z,31.9
2022-12-14T06:31:33.032Z,31.6
2022-12-14T06:33:37.438Z,30.76
2022-12-14T06:35:42.019Z,30.62
2022-12-14T06:37:50.944Z,30.66
2022-12-14T06:39:56.613Z,30.9
2022-12-14T06:42:00.884Z,30.2
2022-12-14T06:44:05.228Z,30.26
2022-12-14T06:46:17.214Z,30.05
2022-12-14T06:48:21.609Z,30.33
2022-12-14T06:50:26.223Z,30.21
2022-12-14T06:52:30.535Z,30.22
2022-12-14T06:54:34.906Z,30.24
2022-12-14T06:56:39.209Z,30.17
2022-12-14T06:58:43.511Z,30.17
2022-12-14T07:00:47.846Z,29.91
2022-12-14T07:02:52.973Z,30.08
2022-12-14T07:04:57.481Z,29.72
2022-12-14T07:07:01.781Z,29.54
2022-12-14T07:09:06.078Z,29.1
2022-12-14T07:11:10.390Z,28.81
2022-12-14T07:13:14.703Z,28.88
2022-12-14T07:15:19.032Z,29.75
2022-12-14T07:17:23.438Z,29.87
2022-12-14T07:19:27.750Z,29.63
2022-12-14T07:21:32.046Z,29.38
2022-12-14T07:23:37.660Z,29.57
2022-12-14T07:25:41.879Z,29.35
2022-12-14T07:27:46.149Z,29.56
2022-12-14T07:29:50.450Z,28.53
2022-12-14T07:31:54.745Z,28.7
2022-12-14T07:33:59.048Z,28.41
2022-12-14T07:36:03.609Z,28.02
2022-12-14T07:38:07.980Z,28.21
2022-12-14T07:40:12.309Z,28.23
2022-12-14T07:42:16.621Z,27.99
2022-12-14T07:44:20.928Z,27.63
2022-12-14T07:46:25.608Z,27.82
2022-12-14T07:48:30.035Z,27.43
2022-12-14T07:50:34.348Z,27.06
2022-12-14T07:52:39.683Z,27.17
2022-12-14T07:54:44.009Z,27.29
2022-12-14T07:56:48.332Z,26.95
2022-12-14T07:58:54.074Z,26.8
2022-12-14T08:00:58.420Z,27.22
2022-12-14T08:03:02.732Z,26.65
2022-12-14T08:05:13.821Z,26.6
2022-12-14T08:07:18.147Z,27.18
2022-12-14T08:09:22.461Z,26.78
2022-12-14T08:11:26.829Z,26.2
2022-12-14T08:13:33.130Z,26.49
2022-12-14T08:15:37.479Z,26.55
2022-12-14T08:17:41.796Z,26.17
2022-12-14T08:19:46.077Z,26.1
2022-12-14T08:21:50.408Z,26.08
2022-12-14T08:23:54.782Z,26.19
2022-12-14T08:25:59.435Z,25.78
2022-12-14T08:28:03.739Z,25.93
2022-12-14T08:30:08.310Z,25.68
2022-12-14T08:32:12.613Z,25.75
2022-12-14T08:34:16.906Z,25.73
2022-12-14T08:36:21.189Z,25.64
2022-12-14T08:38:25.490Z,25.92
2022-12-14T08:40:29.803Z,25.69
2022-12-14T08:42:34.076Z,25.82
2022-12-14T08:44:38.358Z,25.85
2022-12-14T08:46:42.822Z,26.01
2022-12-14T08:48:47.119Z,25.78
2022-12-14T08:50:52.054Z,26.27
2022-12-14T08:52:56.350Z,25.57
2022-12-14T08:55:00.642Z,25.62
2022-12-14T08:57:04.956Z,25.65
2022-12-14T08:59:15.884Z,25.78
2022-12-14T09:01:35.307Z,25.66
2022-12-14T09:03:39.782Z,25.81
2022-12-14T09:05:44.068Z,25.89
2022-12-14T09:07:48.462Z,25.83
2022-12-14T09:09:52.754Z,25.77
2022-12-14T09:11:57.067Z,25.37
2022-12-14T09:14:01.390Z,25.47
2022-12-14T09:16:06.010Z,25.91
2022-12-14T09:18:10.330Z,25.96
2022-12-14T09:20:14.646Z,25.69
2022-12-14T09:22:19.855Z,25.34
2022-12-14T09:24:24.203Z,25.74
2022-12-14T09:26:28.709Z,25.38
2022-12-14T09:28:33.005Z,25.41
2022-12-14T09:30:37.343Z,25.78
2022-12-14T09:32:41.632Z,25.1
2022-12-14T09:34:45.934Z,25.39
2022-12-14T09:36:50.251Z,25.4
2022-12-14T09:38:55.726Z,25.05
2022-12-14T09:41:00.023Z,25.21
2022-12-14T09:43:04.451Z,25.13
2022-12-14T09:45:08.748Z,25.35
2022-12-14T09:47:13.187Z,25.24
2022-12-14T09:49:17.496Z,25.24
2022-12-14T09:51:21.994Z,25.58
2022-12-14T09:53:26.564Z,25.58
2022-12-14T09:55:31.023Z,25.42
2022-12-14T09:57:35.382Z,25.33
2022-12-14T09:59:39.745Z,25.54
2022-12-14T10:02:30.681Z,25.38
2022-12-14T10:04:35.885Z,25.54
2022-12-14T10:06:40.319Z,25.67
2022-12-14T10:08:47.044Z,25.45
2022-12-14T10:10:52.616Z,25.59
2022-12-14T10:12:56.907Z,25.71
2022-12-14T10:15:22.024Z,25.31
2022-12-14T10:17:26.466Z,25.5
2022-12-14T10:19:30.781Z,25.6
2022-12-14T10:21:35.090Z,25.57
2022-12-14T10:23:39.445Z,25.6
2022-12-14T10:25:43.759Z,24.64
2022-12-14T10:28:13.353Z,25.01
2022-12-14T10:30:17.753Z,24.54
2022-12-14T10:32:22.193Z,25.09
2022-12-14T10:34:26.587Z,25.01
2022-12-14T10:36:30.916Z,24.72
2022-12-14T10:38:35.812Z,25.44
2022-12-14T10:40:40.148Z,24.59
2022-12-14T10:42:51.303Z,24.65
2022-12-14T10:45:42.254Z,24.75
2022-12-14T10:47:46.829Z,25.01
2022-12-14T10:49:51.156Z,24.63
2022-12-14T10:51:55.488Z,24.89
2022-12-14T10:53:59.791Z,24.56
2022-12-14T10:56:04.293Z,24.87
2022-12-14T10:58:08.655Z,24.83
2022-12-14T11:00:23.572Z,24.74
2022-12-14T11:02:29.004Z,24.47
2022-12-14T11:04:33.405Z,24.68
2022-12-14T11:06:37.807Z,24.41
2022-12-14T11:08:42.431Z,24.33
2022-12-14T11:10:46.745Z,24.54
2022-12-14T11:12:51.071Z,24.67
2022-12-14T11:14:55.380Z,24.49
2022-12-14T11:17:00.072Z,24.39
2022-12-14T11:19:04.491Z,25.05
2022-12-14T11:21:08.785Z,24.52
2022-12-14T11:23:13.131Z,24.75
2022-12-14T11:25:17.548Z,25
2022-12-14T11:27:21.874Z,25.4
2022-12-14T11:29:26.497Z,24.79
2022-12-14T11:31:30.977Z,24.66
2022-12-14T11:33:35.350Z,24.63
2022-12-14T11:35:39.632Z,24.81
2022-12-14T11:37:43.946Z,24.44
2022-12-14T11:39:51.554Z,25.43
2022-12-14T11:41:55.883Z,25.61
2022-12-14T11:44:00.306Z,25.65
2022-12-14T11:46:04.928Z,25.18
2022-12-14T11:48:09.224Z,25.43
2022-12-14T11:50:13.618Z,25.73
2022-12-14T11:52:17.936Z,25.91
2022-12-14T11:54:22.235Z,25.89
2022-12-14T11:56:26.534Z,25.9
2022-12-14T11:58:32.689Z,25.96
2022-12-14T12:00:37.236Z,25.99
2022-12-14T12:02:42.098Z,25.98
2022-12-14T12:04:46.429Z,25.9
2022-12-14T12:06:50.740Z,25.97
2022-12-14T12:08:55.009Z,26
2022-12-14T12:11:03.954Z,26.02
2022-12-14T12:13:08.339Z,26.01
2022-12-14T12:15:12.689Z,26.09
2022-12-14T12:17:17.034Z,26.07
2022-12-14T12:19:21.347Z,26.06
2022-12-14T12:21:25.624Z,26.01
2022-12-14T12:23:31.575Z,26.02
2022-12-14T12:25:39.703Z,26.03
2022-12-14T12:27:44.023Z,25.99
2022-12-14T12:29:48.337Z,26.1
2022-12-14T12:31:52.595Z,26.15
2022-12-14T12:33:56.916Z,26.13
2022-12-14T12:36:01.224Z,26.14
2022-12-14T12:38:05.567Z,26.12
2022-12-14T12:40:10.030Z,26.14
2022-12-14T12:42:14.373Z,26.21
2022-12-14T12:44:18.674Z,26.07
2022-12-14T12:46:23.183Z,26.07
2022-12-14T12:48:28.657Z,26.07
2022-12-14T12:50:33.220Z,26.21
2022-12-14T12:52:37.515Z,26.01
2022-12-14T12:54:41.885Z,26.01
2022-12-14T12:56:50.173Z,26.33
2022-12-14T12:58:55.425Z,26.42
2022-12-14T13:00:59.733Z,26.37
2022-12-14T13:03:04.829Z,26.13
2022-12-14T13:05:49.411Z,26.83
2022-12-14T13:07:53.775Z,26.99
2022-12-14T13:10:07.192Z,26.77
2022-12-14T13:12:11.517Z,26.65
2022-12-14T13:14:15.830Z,27.3
2022-12-14T13:16:28.985Z,27.19
2022-12-14T13:19:50.071Z,27.06
2022-12-14T13:22:05.823Z,26.96
2022-12-14T13:24:11.597Z,27.1
2022-12-14T13:26:59.312Z,27.13
2022-12-14T13:29:04.162Z,27.1
2022-12-14T13:31:08.897Z,26.81
2022-12-14T13:33:13.247Z,26.91
2022-12-14T13:35:17.750Z,27.19
2022-12-14T13:37:22.044Z,27.1
2022-12-14T13:39:26.409Z,27.16
2022-12-14T13:41:30.712Z,27.16
2022-12-14T13:43:35.080Z,26.85
2022-12-14T13:45:39.439Z,26.78
2022-12-14T13:47:43.974Z,26.73
2022-12-14T13:50:38.347Z,26.67
2022-12-14T13:52:44.035Z,26.61
2022-12-14T13:54:48.401Z,26.85
2022-12-14T13:56:52.694Z,26.61
2022-12-14T13:58:57.019Z,26.73
2022-12-14T14:01:01.334Z,26.62
2022-12-14T14:03:06.160Z,26.97
2022-12-14T14:05:10.544Z,26.86
2022-12-14T14:07:14.825Z,27.11
2022-12-14T14:09:19.162Z,26.96
2022-12-14T14:11:40.385Z,26.91
2022-12-14T14:13:50.616Z,27.04
2022-12-14T14:16:30.299Z,26.96
2022-12-14T14:18:35.555Z,27.01
2022-12-14T14:20:39.882Z,27.04
2022-12-14T14:22:44.161Z,27.12
2022-12-14T14:24:48.435Z,27.15
2022-12-14T14:26:52.877Z,27.31
2022-12-14T14:28:57.203Z,27.4
2022-12-14T14:31:01.828Z,27.51
2022-12-14T14:33:49.045Z,27.58
2022-12-14T14:35:53.630Z,27.51
2022-12-14T14:37:58.133Z,27.49
2022-12-14T14:40:38.201Z,27.43
2022-12-14T14:42:48.522Z,27.44
2022-12-14T14:44:52.847Z,27.38
2022-12-14T14:46:57.386Z,27.43
2022-12-14T14:49:01.786Z,27.4
2022-12-14T14:51:06.258Z,27.33
2022-12-14T14:53:10.589Z,27.23
2022-12-14T14:55:55.386Z,27.16
2022-12-14T14:58:00.111Z,27.17
2022-12-14T15:00:05.206Z,27.22
2022-12-14T15:02:09.548Z,27.51
2022-12-14T15:04:23.356Z,27.48
2022-12-14T15:06:28.086Z,27.56
2022-12-14T15:08:33.968Z,27.46
2022-12-14T15:10:38.319Z,27.52
2022-12-14T15:12:42.663Z,27.47
2022-12-14T15:14:50.851Z,27.52
2022-12-14T15:16:55.190Z,27.52
2022-12-14T15:18:59.503Z,27.68
2022-12-14T15:21:03.858Z,27.79
2022-12-14T15:23:08.190Z,27.88
2022-12-14T15:25:12.564Z,27.78
2022-12-14T15:27:16.889Z,27.79
2022-12-14T15:29:21.178Z,27.89
2022-12-14T15:31:25.777Z,28.11
2022-12-14T15:33:31.663Z,27.94
2022-12-14T15:35:36.538Z,28.29
2022-12-14T15:37:40.835Z,28.18
2022-12-14T15:39:45.167Z,28.09
2022-12-14T15:41:51.140Z,28.09
2022-12-14T15:44:01.866Z,28.02
2022-12-14T15:46:06.959Z,27.98
2022-12-14T15:48:11.512Z,28.07
2022-12-14T15:50:17.168Z,28.05
2022-12-14T15:52:21.697Z,28.09
2022-12-14T15:54:26.633Z,28.06
2022-12-14T15:56:31.895Z,28.02
2022-12-14T15:58:37.089Z,28.01
2022-12-14T16:00:42.315Z,28.08
2022-12-14T16:02:48.251Z,28.09
2022-12-14T16:04:56.099Z,28.01
2022-12-14T16:07:10.309Z,28.01
2022-12-14T16:09:14.644Z,28.05
2022-12-14T16:11:19.644Z,28.07
2022-12-14T16:13:23.977Z,28.03
2022-12-14T16:15:28.290Z,28
2022-12-14T16:17:32.750Z,28.01
2022-12-14T16:20:03.010Z,28.01
2022-12-14T16:22:08.013Z,27.93
2022-12-14T16:24:13.218Z,28.1
2022-12-14T16:26:18.261Z,28.24
2022-12-14T16:28:23.156Z,28.27
2022-12-14T16:30:27.612Z,28.16
2022-12-14T16:32:33.099Z,28.08
2022-12-14T16:34:37.918Z,28.16
2022-12-14T16:37:01.847Z,28.12
2022-12-14T16:39:20.484Z,28.15
2022-12-14T16:41:24.870Z,28.11
2022-12-14T16:43:31.593Z,28.22
2022-12-14T16:45:36.476Z,28.23
2022-12-14T16:47:41.796Z,28.4
2022-12-14T16:49:47.433Z,28.33
2022-12-14T16:52:10.117Z,28.11
2022-12-14T16:54:14.458Z,28.23
2022-12-14T16:56:18.862Z,28.23
2022-12-14T16:58:23.269Z,28.24
2022-12-14T17:00:29.637Z,27.98
2022-12-14T17:02:36.203Z,28.51
2022-12-14T17:04:42.557Z,28.16
2022-12-14T17:06:48.751Z,27.76
2022-12-14T17:08:53.919Z,27.51
2022-12-14T17:10:58.202Z,28.06
2022-12-14T17:13:03.124Z,28.67
2022-12-14T17:15:07.558Z,28.9
2022-12-14T17:17:12.174Z,29.04
2022-12-14T17:19:17.777Z,29.16
2022-12-14T17:21:22.174Z,29.16
2022-12-14T17:23:27.480Z,29.3
2022-12-14T17:25:33.642Z,29.48
2022-12-14T17:27:39.813Z,29.54
2022-12-14T17:29:44.991Z,29.59
2022-12-14T17:31:54.393Z,29.64
2022-12-14T17:33:59.449Z,29.5
2022-12-14T17:36:05.259Z,29.55
2022-12-14T17:38:10.488Z,29.69
2022-12-14T17:40:15.727Z,29.65
2022-12-14T17:42:21.674Z,29.65
2022-12-14T17:44:26.834Z,29.65
2022-12-14T17:46:32.113Z,29.59
2022-12-14T17:48:37.916Z,29.93
2022-12-14T17:50:43.905Z,29.95
2022-12-14T17:52:48.289Z,29.59
2022-12-14T17:54:53.575Z,29.73
2022-12-14T17:56:59.170Z,29.94
2022-12-14T17:59:04.430Z,29.71
2022-12-14T18:01:09.123Z,29.64
2022-12-14T18:03:16.651Z,29.86
2022-12-14T18:05:22.146Z,29.93
2022-12-14T18:07:27.444Z,29.94
2022-12-14T18:09:31.820Z,29.81
2022-12-14T18:11:37.330Z,30.03
2022-12-14T18:13:49.255Z,30.2
2022-12-14T18:15:56.098Z,30.14
2022-12-14T18:18:03.028Z,30.36
2022-12-14T18:20:08.370Z,29.79
2022-12-14T18:22:14.376Z,30.37
2022-12-14T18:24:28.839Z,30.62
2022-12-14T18:26:33.327Z,30.21
2022-12-14T18:28:37.716Z,29.26
2022-12-14T18:30:51.188Z,28.55
2022-12-14T18:32:56.401Z,28.74
2022-12-14T18:35:02.276Z,28.84
2022-12-14T18:37:06.724Z,29.33
2022-12-14T18:39:12.271Z,29.58
2022-12-14T18:41:17.413Z,29.66
2022-12-14T18:43:22.627Z,29.75
2022-12-14T18:45:27.113Z,30
2022-12-14T18:47:48.092Z,28.78
2022-12-14T18:49:53.333Z,29.55
2022-12-14T18:51:59.025Z,29.62
2022-12-14T18:54:03.646Z,29.9
2022-12-14T18:56:09.629Z,29.91
2022-12-14T18:58:14.054Z,29.92
2022-12-14T19:00:18.633Z,30.07
2022-12-14T19:02:23.785Z,30.34
2022-12-14T19:04:29.493Z,30.05
2022-12-14T19:06:50.333Z,31.22
2022-12-14T19:08:55.961Z,31.36
2022-12-14T19:11:01.748Z,31.62
2022-12-14T19:13:07.054Z,31.43
2022-12-14T19:15:11.842Z,30.53
2022-12-14T19:17:16.638Z,30.84
2022-12-14T19:19:35.807Z,30.83
2022-12-14T19:21:44.064Z,30.16
2022-12-14T19:23:48.482Z,29.84
2022-12-14T19:25:53.512Z,28.95
2022-12-14T19:28:34.688Z,28.87
2022-12-14T19:30:39.408Z,28.95
2022-12-14T19:32:45.462Z,28.53
2022-12-14T19:34:54.194Z,29
2022-12-14T19:36:59.032Z,28.44
2022-12-14T19:39:04.271Z,28.85
2022-12-14T19:41:09.076Z,28.53
2022-12-14T19:43:13.681Z,29.16
2022-12-14T19:45:18.365Z,29.2
2022-12-14T19:47:24.220Z,29.63
2022-12-14T19:49:28.917Z,29.7
2022-12-14T19:51:33.779Z,30.41
2022-12-14T19:53:38.623Z,30.48
2022-12-14T19:55:43.067Z,30.72
2022-12-14T19:57:48.404Z,30.78
2022-12-14T19:59:53.012Z,30.67
2022-12-14T20:01:59.053Z,30.98
2022-12-14T20:04:04.004Z,31.1
2022-12-14T20:06:08.369Z,30.05
2022-12-14T20:08:12.803Z,30.52
2022-12-14T20:10:17.171Z,30.83
2022-12-14T20:12:21.640Z,30.6
2022-12-14T20:14:26.280Z,30.97
2022-12-14T20:16:31.045Z,30.54
2022-12-14T20:18:35.705Z,30.96
2022-12-14T20:20:40.269Z,30.99
2022-12-14T20:22:44.681Z,30.89
2022-12-14T20:24:49.624Z,30.66
2022-12-14T20:26:53.988Z,31.11
2022-12-14T20:28:58.479Z,31.31
2022-12-14T20:31:03.426Z,31.45
2022-12-14T20:33:07.977Z,31.95
2022-12-14T20:35:12.984Z,32.35
2022-12-14T20:37:18.518Z,32.3
2022-12-14T20:39:23.079Z,32.16
2022-12-14T20:41:27.544Z,32.54
2022-12-14T20:43:33.426Z,32.46
2022-12-14T20:45:37.957Z,32.46
2022-12-14T20:47:42.403Z,32.15
2022-12-14T20:49:46.966Z,32.31
2022-12-14T20:51:51.372Z,32.58
2022-12-14T20:53:56.234Z,32.15
2022-12-14T20:56:00.910Z,32.43
2022-12-14T20:58:05.239Z,32.19
2022-12-14T21:00:09.596Z,32.33
2022-12-14T21:02:14.602Z,32.47
2022-12-14T21:04:18.993Z,32.44
2022-12-14T21:06:23.359Z,32.02
2022-12-14T21:08:27.833Z,32
2022-12-14T21:10:32.177Z,31.9
2022-12-14T21:12:36.538Z,31.83
2022-12-14T21:14:40.959Z,32.2
2022-12-14T21:16:45.632Z,31.99
2022-12-14T21:18:49.952Z,31.66
2022-12-14T21:20:54.329Z,32.21
2022-12-14T21:22:58.735Z,32.14
2022-12-14T21:25:08.162Z,31.76
2022-12-14T21:27:12.596Z,32.06
2022-12-14T21:29:16.935Z,31.83
2022-12-14T21:31:21.465Z,31.84
2022-12-14T21:33:25.851Z,31.39
2022-12-14T21:35:30.182Z,31.17
2022-12-14T21:37:34.521Z,30.89
2022-12-14T21:39:38.833Z,31.25
2022-12-14T21:41:43.210Z,31.53
2022-12-14T21:43:47.607Z,31.72
2022-12-14T21:45:52.175Z,31.84
2022-12-14T21:47:56.569Z,31.73
2022-12-14T21:50:01.455Z,31.42
2022-12-14T21:52:09.471Z,31.33
2022-12-14T21:54:13.991Z,31.25
2022-12-14T21:56:18.305Z,31.25
2022-12-14T21:58:22.683Z,31.29
2022-12-14T22:00:26.994Z,31.29
2022-12-14T22:02:32.173Z,31.3
2022-12-14T22:04:41.655Z,30.58
2022-12-14T22:06:45.979Z,31.33
2022-12-14T22:08:50.292Z,31.32
2022-12-14T22:10:54.643Z,31.28
2022-12-14T22:12:58.986Z,31.45
2022-12-14T22:15:03.287Z,31.32
2022-12-14T22:17:07.677Z,31.38
2022-12-14T22:19:11.993Z,31.29
2022-12-14T22:21:16.275Z,31.27
2022-12-14T22:23:20.584Z,31.2
2022-12-14T22:25:24.874Z,31.22
2022-12-14T22:27:29.192Z,31.14
2022-12-14T22:29:33.525Z,31.1
2022-12-14T22:31:38.015Z,30.71
2022-12-14T22:33:42.385Z,31.06
2022-12-14T22:35:46.701Z,31.05
2022-12-14T22:37:51.010Z,31.07
2022-12-14T22:39:55.399Z,30.95
2022-12-14T22:41:59.716Z,31.06
2022-12-14T22:44:04.003Z,30.93
2022-12-14T22:46:08.526Z,30.83
2022-12-14T22:48:12.847Z,30.93
2022-12-14T22:50:17.181Z,30.82
2022-12-14T22:52:26.691Z,30.83
2022-12-14T22:54:31.029Z,30.86
2022-12-14T22:56:35.350Z,30.99
2022-12-14T22:58:39.665Z,30.91
2022-12-14T23:00:43.974Z,31.03
2022-12-14T23:02:50.564Z,30.97
2022-12-14T23:04:54.966Z,31.06
2022-12-14T23:06:59.312Z,31.06
2022-12-14T23:09:03.665Z,31.12
2022-12-14T23:11:07.961Z,31.24
2022-12-14T23:13:12.374Z,31.33
2022-12-14T23:15:16.673Z,31.29
2022-12-14T23:17:20.981Z,31.3
2022-12-14T23:19:25.331Z,31.37
2022-12-14T23:21:29.663Z,31.37
2022-12-14T23:23:35.505Z,31.51
2022-12-14T23:25:39.910Z,31.5
2022-12-14T23:27:44.220Z,31.42
2022-12-14T23:29:48.494Z,31.49
2022-12-14T23:31:52.817Z,31.43
2022-12-14T23:33:57.119Z,31.45
2022-12-14T23:36:01.415Z,31.38
2022-12-14T23:38:05.747Z,31.44
2022-12-14T23:40:10.047Z,31.43
2022-12-14T23:42:14.380Z,31.46
2022-12-14T23:44:18.668Z,31.55
2022-12-14T23:46:23.490Z,31.62
2022-12-14T23:48:27.905Z,31.56
2022-12-14T23:50:32.208Z,31.47
2022-12-14T23:52:36.503Z,31.45
2022-12-14T23:54:40.762Z,31.38
2022-12-14T23:56:45.027Z,31.46
2022-12-14T23:58:49.343Z,31.53
